sensor_id;sensor_type;location;lat;lon;timestamp;P1;durP1;ratioP1;P2;durP2;ratioP2
28009;SDS011;15334;49.494;8.410;2023-03-23T00:04:27;1.58;;;1.10;;
28009;SDS011;15334;49.494;8.410;2023-03-23T00:06:55;2.53;;;1.30;;
28009;SDS011;15334;49.494;8.410;2023-03-23T00:09:26;6.72;;;1.40;;
28009;SDS011;15334;49.494;8.410;2023-03-23T00:11:53;4.65;;;1.20;;
28009;SDS011;15334;49.494;8.410;2023-03-23T00:14:22;2.15;;;1.10;;
28009;SDS011;15334;49.494;8.410;2023-03-23T00:16:50;2.90;;;1.40;;
28009;SDS011;15334;49.494;8.410;2023-03-23T00:19:17;4.00;;;1.90;;
28009;SDS011;15334;49.494;8.410;2023-03-23T00:21:47;3.55;;;1.33;;
28009;SDS011;15334;49.494;8.410;2023-03-23T00:24:18;4.72;;;1.33;;
28009;SDS011;15334;49.494;8.410;2023-03-23T00:26:46;2.97;;;1.40;;
28009;SDS011;15334;49.494;8.410;2023-03-23T00:29:15;2.95;;;1.23;;
28009;SDS011;15334;49.494;8.410;2023-03-23T00:31:44;2.22;;;1.10;;
28009;SDS011;15334;49.494;8.410;2023-03-23T00:34:16;2.03;;;1.10;;
28009;SDS011;15334;49.494;8.410;2023-03-23T00:36:44;2.10;;;1.40;;
28009;SDS011;15334;49.494;8.410;2023-03-23T00:39:14;2.83;;;1.50;;
28009;SDS011;15334;49.494;8.410;2023-03-23T00:41:42;3.80;;;1.52;;
28009;SDS011;15334;49.494;8.410;2023-03-23T00:44:10;2.60;;;1.40;;
28009;SDS011;15334;49.494;8.410;2023-03-23T00:46:41;2.58;;;1.30;;
28009;SDS011;15334;49.494;8.410;2023-03-23T00:49:10;2.63;;;1.27;;
28009;SDS011;15334;49.494;8.410;2023-03-23T00:51:41;3.40;;;1.40;;
28009;SDS011;15334;49.494;8.410;2023-03-23T00:54:09;2.08;;;1.20;;
28009;SDS011;15334;49.494;8.410;2023-03-23T00:56:37;2.67;;;1.13;;
28009;SDS011;15334;49.494;8.410;2023-03-23T00:59:05;2.63;;;1.17;;
28009;SDS011;15334;49.494;8.410;2023-03-23T01:01:32;2.58;;;1.10;;
28009;SDS011;15334;49.494;8.410;2023-03-23T01:03:59;1.73;;;1.05;;
28009;SDS011;15334;49.494;8.410;2023-03-23T01:06:29;3.30;;;1.00;;
28009;SDS011;15334;49.494;8.410;2023-03-23T01:08:57;2.13;;;1.20;;
28009;SDS011;15334;49.494;8.410;2023-03-23T01:11:27;3.03;;;1.25;;
28009;SDS011;15334;49.494;8.410;2023-03-23T01:13:54;4.35;;;1.25;;
28009;SDS011;15334;49.494;8.410;2023-03-23T01:16:21;2.92;;;1.13;;
28009;SDS011;15334;49.494;8.410;2023-03-23T01:18:48;3.03;;;1.33;;
28009;SDS011;15334;49.494;8.410;2023-03-23T01:21:15;3.05;;;1.20;;
28009;SDS011;15334;49.494;8.410;2023-03-23T01:23:43;2.78;;;1.25;;
28009;SDS011;15334;49.494;8.410;2023-03-23T01:26:11;3.63;;;1.27;;
28009;SDS011;15334;49.494;8.410;2023-03-23T01:28:40;3.92;;;1.23;;
28009;SDS011;15334;49.494;8.410;2023-03-23T01:31:08;2.40;;;1.02;;
28009;SDS011;15334;49.494;8.410;2023-03-23T01:33:37;2.33;;;1.10;;
28009;SDS011;15334;49.494;8.410;2023-03-23T01:36:05;2.35;;;1.30;;
28009;SDS011;15334;49.494;8.410;2023-03-23T01:38:34;1.63;;;0.85;;
28009;SDS011;15334;49.494;8.410;2023-03-23T01:41:01;2.17;;;1.10;;
28009;SDS011;15334;49.494;8.410;2023-03-23T01:43:29;3.28;;;1.00;;
28009;SDS011;15334;49.494;8.410;2023-03-23T01:45:58;1.77;;;1.10;;
28009;SDS011;15334;49.494;8.410;2023-03-23T01:48:26;2.70;;;1.08;;
28009;SDS011;15334;49.494;8.410;2023-03-23T01:50:56;3.08;;;1.10;;
28009;SDS011;15334;49.494;8.410;2023-03-23T01:53:27;1.83;;;1.05;;
28009;SDS011;15334;49.494;8.410;2023-03-23T01:55:57;2.38;;;1.17;;
28009;SDS011;15334;49.494;8.410;2023-03-23T01:58:26;1.52;;;1.05;;
28009;SDS011;15334;49.494;8.410;2023-03-23T02:00:58;1.38;;;1.10;;
28009;SDS011;15334;49.494;8.410;2023-03-23T02:03:29;1.63;;;1.00;;
28009;SDS011;15334;49.494;8.410;2023-03-23T02:05:57;1.40;;;0.88;;
28009;SDS011;15334;49.494;8.410;2023-03-23T02:08:24;2.03;;;1.02;;
28009;SDS011;15334;49.494;8.410;2023-03-23T02:10:54;2.50;;;1.13;;
28009;SDS011;15334;49.494;8.410;2023-03-23T02:13:21;2.38;;;1.30;;
28009;SDS011;15334;49.494;8.410;2023-03-23T02:15:51;2.75;;;1.20;;
28009;SDS011;15334;49.494;8.410;2023-03-23T02:18:33;3.83;;;1.58;;
28009;SDS011;15334;49.494;8.410;2023-03-23T02:24:42;3.15;;;1.13;;
28009;SDS011;15334;49.494;8.410;2023-03-23T02:27:43;2.92;;;1.20;;
28009;SDS011;15334;49.494;8.410;2023-03-23T02:30:37;2.10;;;1.10;;
28009;SDS011;15334;49.494;8.410;2023-03-23T02:33:33;2.28;;;1.15;;
28009;SDS011;15334;49.494;8.410;2023-03-23T02:36:07;4.85;;;1.10;;
28009;SDS011;15334;49.494;8.410;2023-03-23T02:38:41;3.53;;;1.30;;
28009;SDS011;15334;49.494;8.410;2023-03-23T02:41:16;2.90;;;1.10;;
28009;SDS011;15334;49.494;8.410;2023-03-23T02:43:46;2.25;;;1.15;;
28009;SDS011;15334;49.494;8.410;2023-03-23T02:46:14;2.63;;;1.17;;
28009;SDS011;15334;49.494;8.410;2023-03-23T02:48:46;2.35;;;1.08;;
28009;SDS011;15334;49.494;8.410;2023-03-23T02:51:19;4.68;;;1.73;;
28009;SDS011;15334;49.494;8.410;2023-03-23T02:53:47;2.28;;;0.80;;
28009;SDS011;15334;49.494;8.410;2023-03-23T02:56:17;1.90;;;1.20;;
28009;SDS011;15334;49.494;8.410;2023-03-23T02:58:44;2.50;;;1.00;;
28009;SDS011;15334;49.494;8.410;2023-03-23T03:01:16;2.50;;;1.20;;
28009;SDS011;15334;49.494;8.410;2023-03-23T03:04:16;3.90;;;1.10;;
28009;SDS011;15334;49.494;8.410;2023-03-23T03:07:00;3.30;;;0.98;;
28009;SDS011;15334;49.494;8.410;2023-03-23T03:09:34;2.72;;;1.10;;
28009;SDS011;15334;49.494;8.410;2023-03-23T03:12:11;1.85;;;0.90;;
28009;SDS011;15334;49.494;8.410;2023-03-23T03:14:48;3.35;;;1.13;;
28009;SDS011;15334;49.494;8.410;2023-03-23T03:17:22;2.00;;;1.02;;
28009;SDS011;15334;49.494;8.410;2023-03-23T03:19:54;2.17;;;1.15;;
28009;SDS011;15334;49.494;8.410;2023-03-23T03:22:25;3.60;;;1.30;;
28009;SDS011;15334;49.494;8.410;2023-03-23T03:24:55;2.72;;;1.13;;
28009;SDS011;15334;49.494;8.410;2023-03-23T03:27:23;1.65;;;1.02;;
28009;SDS011;15334;49.494;8.410;2023-03-23T03:29:53;2.20;;;1.00;;
28009;SDS011;15334;49.494;8.410;2023-03-23T03:32:25;4.13;;;1.52;;
28009;SDS011;15334;49.494;8.410;2023-03-23T03:34:59;2.58;;;0.88;;
28009;SDS011;15334;49.494;8.410;2023-03-23T03:37:33;3.83;;;1.38;;
28009;SDS011;15334;49.494;8.410;2023-03-23T03:40:03;3.25;;;1.10;;
28009;SDS011;15334;49.494;8.410;2023-03-23T03:42:36;2.50;;;1.30;;
28009;SDS011;15334;49.494;8.410;2023-03-23T03:45:05;2.33;;;1.23;;
28009;SDS011;15334;49.494;8.410;2023-03-23T03:47:33;3.20;;;1.38;;
28009;SDS011;15334;49.494;8.410;2023-03-23T03:50:01;2.80;;;1.35;;
28009;SDS011;15334;49.494;8.410;2023-03-23T03:52:29;3.20;;;1.42;;
28009;SDS011;15334;49.494;8.410;2023-03-23T03:54:56;3.80;;;1.30;;
28009;SDS011;15334;49.494;8.410;2023-03-23T03:57:23;2.13;;;1.50;;
28009;SDS011;15334;49.494;8.410;2023-03-23T03:59:51;4.55;;;1.40;;
28009;SDS011;15334;49.494;8.410;2023-03-23T04:02:18;3.92;;;1.38;;
28009;SDS011;15334;49.494;8.410;2023-03-23T04:04:46;3.78;;;1.52;;
28009;SDS011;15334;49.494;8.410;2023-03-23T04:07:14;2.15;;;1.30;;
28009;SDS011;15334;49.494;8.410;2023-03-23T04:09:42;2.28;;;1.20;;
28009;SDS011;15334;49.494;8.410;2023-03-23T04:12:11;1.70;;;1.10;;
28009;SDS011;15334;49.494;8.410;2023-03-23T04:14:38;4.20;;;1.52;;
28009;SDS011;15334;49.494;8.410;2023-03-23T04:17:05;2.58;;;1.35;;
28009;SDS011;15334;49.494;8.410;2023-03-23T04:19:34;1.65;;;1.23;;
28009;SDS011;15334;49.494;8.410;2023-03-23T04:22:01;3.97;;;1.25;;
28009;SDS011;15334;49.494;8.410;2023-03-23T04:24:30;2.20;;;1.20;;
28009;SDS011;15334;49.494;8.410;2023-03-23T04:26:58;3.72;;;1.33;;
28009;SDS011;15334;49.494;8.410;2023-03-23T04:29:25;2.63;;;1.35;;
28009;SDS011;15334;49.494;8.410;2023-03-23T04:31:52;3.00;;;1.40;;
28009;SDS011;15334;49.494;8.410;2023-03-23T04:34:21;2.58;;;1.38;;
28009;SDS011;15334;49.494;8.410;2023-03-23T04:36:48;3.03;;;1.50;;
28009;SDS011;15334;49.494;8.410;2023-03-23T04:39:32;2.00;;;1.13;;
28009;SDS011;15334;49.494;8.410;2023-03-23T04:51:03;2.55;;;1.42;;
28009;SDS011;15334;49.494;8.410;2023-03-23T04:54:42;4.85;;;1.80;;
28009;SDS011;15334;49.494;8.410;2023-03-23T04:57:32;3.95;;;1.60;;
28009;SDS011;15334;49.494;8.410;2023-03-23T05:01:17;4.05;;;1.60;;
28009;SDS011;15334;49.494;8.410;2023-03-23T05:12:21;5.10;;;1.77;;
28009;SDS011;15334;49.494;8.410;2023-03-23T05:22:39;3.03;;;1.70;;
28009;SDS011;15334;49.494;8.410;2023-03-23T05:26:07;3.97;;;1.52;;
28009;SDS011;15334;49.494;8.410;2023-03-23T05:32:16;3.72;;;1.80;;
28009;SDS011;15334;49.494;8.410;2023-03-23T05:39:24;4.70;;;2.10;;
28009;SDS011;15334;49.494;8.410;2023-03-23T05:49:24;3.20;;;1.90;;
28009;SDS011;15334;49.494;8.410;2023-03-23T05:51:51;3.92;;;1.70;;
28009;SDS011;15334;49.494;8.410;2023-03-23T05:54:18;2.55;;;1.50;;
28009;SDS011;15334;49.494;8.410;2023-03-23T05:56:45;2.80;;;1.38;;
28009;SDS011;15334;49.494;8.410;2023-03-23T05:59:14;2.90;;;1.63;;
28009;SDS011;15334;49.494;8.410;2023-03-23T06:01:43;3.45;;;1.58;;
28009;SDS011;15334;49.494;8.410;2023-03-23T06:04:09;2.72;;;1.50;;
28009;SDS011;15334;49.494;8.410;2023-03-23T06:06:39;3.42;;;1.90;;
28009;SDS011;15334;49.494;8.410;2023-03-23T06:09:08;2.53;;;1.30;;
28009;SDS011;15334;49.494;8.410;2023-03-23T06:11:36;4.55;;;1.60;;
28009;SDS011;15334;49.494;8.410;2023-03-23T06:14:03;2.83;;;1.67;;
28009;SDS011;15334;49.494;8.410;2023-03-23T06:16:30;3.40;;;1.38;;
28009;SDS011;15334;49.494;8.410;2023-03-23T06:18:59;3.92;;;1.73;;
28009;SDS011;15334;49.494;8.410;2023-03-23T06:21:29;4.38;;;1.40;;
28009;SDS011;15334;49.494;8.410;2023-03-23T06:23:56;2.90;;;1.42;;
28009;SDS011;15334;49.494;8.410;2023-03-23T06:26:25;2.35;;;1.35;;
28009;SDS011;15334;49.494;8.410;2023-03-23T06:28:54;3.67;;;1.48;;
28009;SDS011;15334;49.494;8.410;2023-03-23T06:31:22;2.83;;;1.40;;
28009;SDS011;15334;49.494;8.410;2023-03-23T06:33:49;3.85;;;1.20;;
28009;SDS011;15334;49.494;8.410;2023-03-23T06:36:18;6.22;;;1.38;;
28009;SDS011;15334;49.494;8.410;2023-03-23T06:38:45;2.08;;;1.30;;
28009;SDS011;15334;49.494;8.410;2023-03-23T06:41:13;2.88;;;1.30;;
28009;SDS011;15334;49.494;8.410;2023-03-23T06:43:40;3.75;;;1.60;;
28009;SDS011;15334;49.494;8.410;2023-03-23T06:46:11;3.03;;;1.40;;
28009;SDS011;15334;49.494;8.410;2023-03-23T06:48:38;3.50;;;1.50;;
28009;SDS011;15334;49.494;8.410;2023-03-23T06:51:05;3.47;;;1.30;;
28009;SDS011;15334;49.494;8.410;2023-03-23T06:53:33;4.30;;;1.67;;
28009;SDS011;15334;49.494;8.410;2023-03-23T06:56:01;4.50;;;1.60;;
28009;SDS011;15334;49.494;8.410;2023-03-23T06:58:28;3.92;;;1.48;;
28009;SDS011;15334;49.494;8.410;2023-03-23T07:00:54;5.85;;;1.60;;
28009;SDS011;15334;49.494;8.410;2023-03-23T07:03:25;2.08;;;1.20;;
28009;SDS011;15334;49.494;8.410;2023-03-23T07:05:53;2.25;;;0.90;;
28009;SDS011;15334;49.494;8.410;2023-03-23T07:08:20;2.92;;;1.08;;
28009;SDS011;15334;49.494;8.410;2023-03-23T07:10:50;4.65;;;0.90;;
28009;SDS011;15334;49.494;8.410;2023-03-23T07:13:18;1.92;;;1.00;;
28009;SDS011;15334;49.494;8.410;2023-03-23T07:15:45;1.00;;;0.80;;
28009;SDS011;15334;49.494;8.410;2023-03-23T07:18:13;2.47;;;1.00;;
28009;SDS011;15334;49.494;8.410;2023-03-23T07:20:40;2.35;;;0.80;;
28009;SDS011;15334;49.494;8.410;2023-03-23T07:23:07;1.85;;;0.90;;
28009;SDS011;15334;49.494;8.410;2023-03-23T07:25:35;2.05;;;1.10;;
28009;SDS011;15334;49.494;8.410;2023-03-23T07:28:03;1.92;;;0.80;;
28009;SDS011;15334;49.494;8.410;2023-03-23T07:30:31;2.28;;;0.85;;
28009;SDS011;15334;49.494;8.410;2023-03-23T07:32:59;1.20;;;0.52;;
28009;SDS011;15334;49.494;8.410;2023-03-23T07:35:30;2.15;;;0.90;;
28009;SDS011;15334;49.494;8.410;2023-03-23T07:37:57;1.58;;;1.00;;
28009;SDS011;15334;49.494;8.410;2023-03-23T07:40:24;2.15;;;0.82;;
28009;SDS011;15334;49.494;8.410;2023-03-23T07:42:53;2.40;;;1.20;;
28009;SDS011;15334;49.494;8.410;2023-03-23T07:45:23;0.80;;;0.60;;
28009;SDS011;15334;49.494;8.410;2023-03-23T07:47:50;1.50;;;0.95;;
28009;SDS011;15334;49.494;8.410;2023-03-23T07:50:18;0.60;;;0.50;;
28009;SDS011;15334;49.494;8.410;2023-03-23T07:52:47;1.73;;;0.90;;
28009;SDS011;15334;49.494;8.410;2023-03-23T07:55:14;3.72;;;1.00;;
28009;SDS011;15334;49.494;8.410;2023-03-23T07:57:43;1.40;;;0.70;;
28009;SDS011;15334;49.494;8.410;2023-03-23T08:00:12;1.63;;;0.93;;
28009;SDS011;15334;49.494;8.410;2023-03-23T08:02:48;0.95;;;0.70;;
28009;SDS011;15334;49.494;8.410;2023-03-23T08:05:16;0.60;;;0.60;;
28009;SDS011;15334;49.494;8.410;2023-03-23T08:07:44;0.82;;;0.60;;
28009;SDS011;15334;49.494;8.410;2023-03-23T08:10:13;1.10;;;0.75;;
28009;SDS011;15334;49.494;8.410;2023-03-23T08:12:41;1.35;;;0.93;;
28009;SDS011;15334;49.494;8.410;2023-03-23T08:15:09;1.98;;;0.77;;
28009;SDS011;15334;49.494;8.410;2023-03-23T08:17:39;2.97;;;1.20;;
28009;SDS011;15334;49.494;8.410;2023-03-23T08:20:09;2.13;;;0.90;;
28009;SDS011;15334;49.494;8.410;2023-03-23T08:22:38;1.90;;;1.08;;
28009;SDS011;15334;49.494;8.410;2023-03-23T08:25:06;0.82;;;0.70;;
28009;SDS011;15334;49.494;8.410;2023-03-23T08:27:35;2.83;;;1.00;;
28009;SDS011;15334;49.494;8.410;2023-03-23T08:30:03;7.28;;;1.17;;
28009;SDS011;15334;49.494;8.410;2023-03-23T08:32:32;1.98;;;1.13;;
28009;SDS011;15334;49.494;8.410;2023-03-23T08:34:59;1.48;;;0.80;;
28009;SDS011;15334;49.494;8.410;2023-03-23T08:37:28;1.27;;;0.90;;
28009;SDS011;15334;49.494;8.410;2023-03-23T08:39:55;2.10;;;0.73;;
28009;SDS011;15334;49.494;8.410;2023-03-23T08:42:23;2.55;;;0.95;;
28009;SDS011;15334;49.494;8.410;2023-03-23T08:44:53;2.65;;;1.10;;
28009;SDS011;15334;49.494;8.410;2023-03-23T08:47:19;1.98;;;1.00;;
28009;SDS011;15334;49.494;8.410;2023-03-23T08:49:46;1.95;;;0.90;;
28009;SDS011;15334;49.494;8.410;2023-03-23T08:52:17;1.33;;;0.80;;
28009;SDS011;15334;49.494;8.410;2023-03-23T08:54:46;2.17;;;0.90;;
28009;SDS011;15334;49.494;8.410;2023-03-23T08:57:13;2.70;;;1.25;;
28009;SDS011;15334;49.494;8.410;2023-03-23T08:59:41;2.33;;;1.00;;
28009;SDS011;15334;49.494;8.410;2023-03-23T09:02:09;3.90;;;0.80;;
28009;SDS011;15334;49.494;8.410;2023-03-23T09:04:38;2.17;;;1.10;;
28009;SDS011;15334;49.494;8.410;2023-03-23T09:07:07;1.73;;;0.98;;
28009;SDS011;15334;49.494;8.410;2023-03-23T09:09:36;1.85;;;0.70;;
28009;SDS011;15334;49.494;8.410;2023-03-23T09:12:08;1.90;;;1.00;;
28009;SDS011;15334;49.494;8.410;2023-03-23T09:14:38;2.40;;;1.00;;
28009;SDS011;15334;49.494;8.410;2023-03-23T09:17:05;2.38;;;1.05;;
28009;SDS011;15334;49.494;8.410;2023-03-23T09:19:33;1.58;;;0.90;;
28009;SDS011;15334;49.494;8.410;2023-03-23T09:22:02;3.17;;;0.80;;
28009;SDS011;15334;49.494;8.410;2023-03-23T09:24:33;3.50;;;0.73;;
28009;SDS011;15334;49.494;8.410;2023-03-23T09:27:00;0.88;;;0.80;;
28009;SDS011;15334;49.494;8.410;2023-03-23T09:29:31;3.25;;;0.73;;
28009;SDS011;15334;49.494;8.410;2023-03-23T09:31:58;1.88;;;0.80;;
28009;SDS011;15334;49.494;8.410;2023-03-23T09:34:25;1.60;;;0.60;;
28009;SDS011;15334;49.494;8.410;2023-03-23T09:36:54;2.63;;;0.70;;
28009;SDS011;15334;49.494;8.410;2023-03-23T09:39:23;1.77;;;1.10;;
28009;SDS011;15334;49.494;8.410;2023-03-23T09:41:58;2.03;;;0.90;;
28009;SDS011;15334;49.494;8.410;2023-03-23T09:44:35;2.33;;;1.02;;
28009;SDS011;15334;49.494;8.410;2023-03-23T09:47:11;1.10;;;0.80;;
28009;SDS011;15334;49.494;8.410;2023-03-23T09:49:48;1.63;;;0.95;;
28009;SDS011;15334;49.494;8.410;2023-03-23T09:52:20;2.63;;;1.13;;
28009;SDS011;15334;49.494;8.410;2023-03-23T09:54:48;5.75;;;1.50;;
28009;SDS011;15334;49.494;8.410;2023-03-23T09:57:19;3.08;;;1.08;;
28009;SDS011;15334;49.494;8.410;2023-03-23T09:59:54;1.73;;;0.90;;
28009;SDS011;15334;49.494;8.410;2023-03-23T10:02:31;2.80;;;1.00;;
28009;SDS011;15334;49.494;8.410;2023-03-23T10:05:11;2.15;;;1.05;;
28009;SDS011;15334;49.494;8.410;2023-03-23T10:08:00;1.88;;;1.02;;
28009;SDS011;15334;49.494;8.410;2023-03-23T10:10:36;2.90;;;1.30;;
28009;SDS011;15334;49.494;8.410;2023-03-23T10:13:13;3.10;;;1.08;;
28009;SDS011;15334;49.494;8.410;2023-03-23T10:15:53;4.20;;;1.10;;
28009;SDS011;15334;49.494;8.410;2023-03-23T10:18:23;2.90;;;1.10;;
28009;SDS011;15334;49.494;8.410;2023-03-23T10:20:54;2.42;;;1.08;;
28009;SDS011;15334;49.494;8.410;2023-03-23T10:23:39;2.03;;;0.90;;
28009;SDS011;15334;49.494;8.410;2023-03-23T10:26:14;3.40;;;1.00;;
28009;SDS011;15334;49.494;8.410;2023-03-23T10:28:48;2.47;;;0.90;;
28009;SDS011;15334;49.494;8.410;2023-03-23T10:31:20;2.38;;;0.88;;
28009;SDS011;15334;49.494;8.410;2023-03-23T10:33:50;2.28;;;1.13;;
28009;SDS011;15334;49.494;8.410;2023-03-23T10:36:21;2.55;;;1.13;;
28009;SDS011;15334;49.494;8.410;2023-03-23T10:38:56;2.92;;;1.10;;
28009;SDS011;15334;49.494;8.410;2023-03-23T10:41:26;1.65;;;1.00;;
28009;SDS011;15334;49.494;8.410;2023-03-23T10:43:53;1.58;;;1.13;;
28009;SDS011;15334;49.494;8.410;2023-03-23T10:46:25;1.75;;;0.85;;
28009;SDS011;15334;49.494;8.410;2023-03-23T10:48:58;0.98;;;0.80;;
28009;SDS011;15334;49.494;8.410;2023-03-23T10:51:32;1.80;;;0.85;;
28009;SDS011;15334;49.494;8.410;2023-03-23T10:54:02;2.13;;;0.80;;
28009;SDS011;15334;49.494;8.410;2023-03-23T10:56:34;1.92;;;0.70;;
28009;SDS011;15334;49.494;8.410;2023-03-23T10:59:11;3.20;;;1.00;;
28009;SDS011;15334;49.494;8.410;2023-03-23T11:01:42;2.20;;;0.80;;
28009;SDS011;15334;49.494;8.410;2023-03-23T11:04:13;1.90;;;1.10;;
28009;SDS011;15334;49.494;8.410;2023-03-23T11:06:43;1.92;;;1.02;;
28009;SDS011;15334;49.494;8.410;2023-03-23T11:09:13;1.05;;;0.75;;
28009;SDS011;15334;49.494;8.410;2023-03-23T11:11:43;1.27;;;0.85;;
28009;SDS011;15334;49.494;8.410;2023-03-23T11:14:15;2.33;;;0.95;;
28009;SDS011;15334;49.494;8.410;2023-03-23T11:16:46;1.45;;;0.80;;
28009;SDS011;15334;49.494;8.410;2023-03-23T11:19:21;1.23;;;0.70;;
28009;SDS011;15334;49.494;8.410;2023-03-23T11:21:50;2.03;;;0.90;;
28009;SDS011;15334;49.494;8.410;2023-03-23T11:24:20;4.45;;;0.82;;
28009;SDS011;15334;49.494;8.410;2023-03-23T11:26:48;2.05;;;1.00;;
28009;SDS011;15334;49.494;8.410;2023-03-23T11:29:18;1.02;;;0.50;;
28009;SDS011;15334;49.494;8.410;2023-03-23T11:31:49;1.42;;;0.70;;
28009;SDS011;15334;49.494;8.410;2023-03-23T11:34:20;1.63;;;0.73;;
28009;SDS011;15334;49.494;8.410;2023-03-23T11:36:48;1.88;;;0.85;;
28009;SDS011;15334;49.494;8.410;2023-03-23T11:39:21;3.92;;;0.85;;
28009;SDS011;15334;49.494;8.410;2023-03-23T11:41:49;1.48;;;0.73;;
28009;SDS011;15334;49.494;8.410;2023-03-23T11:44:17;1.50;;;0.90;;
28009;SDS011;15334;49.494;8.410;2023-03-23T11:46:47;1.65;;;0.85;;
28009;SDS011;15334;49.494;8.410;2023-03-23T11:49:25;2.50;;;0.77;;
28009;SDS011;15334;49.494;8.410;2023-03-23T11:51:58;1.08;;;0.68;;
28009;SDS011;15334;49.494;8.410;2023-03-23T11:54:37;0.70;;;0.60;;
28009;SDS011;15334;49.494;8.410;2023-03-23T11:57:08;1.83;;;0.80;;
28009;SDS011;15334;49.494;8.410;2023-03-23T11:59:37;1.55;;;0.60;;
28009;SDS011;15334;49.494;8.410;2023-03-23T12:02:12;2.50;;;0.63;;
28009;SDS011;15334;49.494;8.410;2023-03-23T12:08:00;1.00;;;0.55;;
28009;SDS011;15334;49.494;8.410;2023-03-23T12:10:40;3.15;;;0.70;;
28009;SDS011;15334;49.494;8.410;2023-03-23T12:13:22;1.73;;;0.73;;
28009;SDS011;15334;49.494;8.410;2023-03-23T12:16:03;1.45;;;0.80;;
28009;SDS011;15334;49.494;8.410;2023-03-23T12:18:40;0.90;;;0.70;;
28009;SDS011;15334;49.494;8.410;2023-03-23T12:21:16;1.48;;;0.95;;
28009;SDS011;15334;49.494;8.410;2023-03-23T12:23:50;1.98;;;0.63;;
28009;SDS011;15334;49.494;8.410;2023-03-23T12:26:22;0.77;;;0.70;;
28009;SDS011;15334;49.494;8.410;2023-03-23T12:31:52;1.15;;;0.70;;
28009;SDS011;15334;49.494;8.410;2023-03-23T12:34:44;1.48;;;0.80;;
28009;SDS011;15334;49.494;8.410;2023-03-23T12:37:21;2.03;;;0.73;;
28009;SDS011;15334;49.494;8.410;2023-03-23T12:40:07;0.85;;;0.63;;
28009;SDS011;15334;49.494;8.410;2023-03-23T12:42:51;0.88;;;0.60;;
28009;SDS011;15334;49.494;8.410;2023-03-23T12:45:25;1.13;;;0.70;;
28009;SDS011;15334;49.494;8.410;2023-03-23T12:48:11;1.35;;;0.60;;
28009;SDS011;15334;49.494;8.410;2023-03-23T12:50:43;1.45;;;0.77;;
28009;SDS011;15334;49.494;8.410;2023-03-23T12:53:16;1.73;;;1.02;;
28009;SDS011;15334;49.494;8.410;2023-03-23T12:55:49;1.10;;;0.98;;
28009;SDS011;15334;49.494;8.410;2023-03-23T12:58:20;0.50;;;0.50;;
28009;SDS011;15334;49.494;8.410;2023-03-23T13:00:55;0.98;;;0.60;;
28009;SDS011;15334;49.494;8.410;2023-03-23T13:03:27;1.08;;;0.75;;
28009;SDS011;15334;49.494;8.410;2023-03-23T13:08:32;1.10;;;0.70;;
28009;SDS011;15334;49.494;8.410;2023-03-23T13:11:03;4.05;;;0.80;;
28009;SDS011;15334;49.494;8.410;2023-03-23T13:13:40;0.40;;;0.38;;
28009;SDS011;15334;49.494;8.410;2023-03-23T13:16:11;1.95;;;0.70;;
28009;SDS011;15334;49.494;8.410;2023-03-23T13:18:44;1.60;;;0.70;;
28009;SDS011;15334;49.494;8.410;2023-03-23T13:21:19;0.60;;;0.52;;
28009;SDS011;15334;49.494;8.410;2023-03-23T13:23:53;1.27;;;0.73;;
28009;SDS011;15334;49.494;8.410;2023-03-23T13:26:24;0.85;;;0.63;;
28009;SDS011;15334;49.494;8.410;2023-03-23T13:28:56;0.60;;;0.60;;
28009;SDS011;15334;49.494;8.410;2023-03-23T13:31:29;0.95;;;0.90;;
28009;SDS011;15334;49.494;8.410;2023-03-23T13:37:20;1.15;;;0.80;;
28009;SDS011;15334;49.494;8.410;2023-03-23T13:40:13;1.48;;;0.82;;
28009;SDS011;15334;49.494;8.410;2023-03-23T13:43:42;2.60;;;1.00;;
28009;SDS011;15334;49.494;8.410;2023-03-23T13:46:31;2.53;;;0.80;;
28009;SDS011;15334;49.494;8.410;2023-03-23T13:49:31;1.25;;;0.70;;
28009;SDS011;15334;49.494;8.410;2023-03-23T13:55:30;1.63;;;0.70;;
28009;SDS011;15334;49.494;8.410;2023-03-23T13:59:13;1.60;;;0.93;;
28009;SDS011;15334;49.494;8.410;2023-03-23T14:02:51;5.90;;;1.02;;
28009;SDS011;15334;49.494;8.410;2023-03-23T14:06:12;3.47;;;0.80;;
28009;SDS011;15334;49.494;8.410;2023-03-23T14:32:11;3.05;;;0.98;;
28009;SDS011;15334;49.494;8.410;2023-03-23T14:36:34;1.02;;;0.63;;
28009;SDS011;15334;49.494;8.410;2023-03-23T14:51:19;2.25;;;1.00;;
28009;SDS011;15334;49.494;8.410;2023-03-23T14:53:57;1.20;;;0.60;;
28009;SDS011;15334;49.494;8.410;2023-03-23T14:59:16;1.98;;;0.88;;
28009;SDS011;15334;49.494;8.410;2023-03-23T15:00:41;1.95;;;0.70;;
28009;SDS011;15334;49.494;8.410;2023-03-23T15:16:12;0.95;;;0.60;;
28009;SDS011;15334;49.494;8.410;2023-03-23T15:19:31;0.85;;;0.73;;
28009;SDS011;15334;49.494;8.410;2023-03-23T15:22:52;1.13;;;0.93;;
28009;SDS011;15334;49.494;8.410;2023-03-23T15:26:15;2.15;;;0.80;;
28009;SDS011;15334;49.494;8.410;2023-03-23T15:29:30;3.58;;;1.10;;
28009;SDS011;15334;49.494;8.410;2023-03-23T15:32:02;2.13;;;0.98;;
28009;SDS011;15334;49.494;8.410;2023-03-23T15:34:33;1.27;;;0.98;;
28009;SDS011;15334;49.494;8.410;2023-03-23T15:37:15;2.65;;;0.80;;
28009;SDS011;15334;49.494;8.410;2023-03-23T15:40:15;1.75;;;1.02;;
28009;SDS011;15334;49.494;8.410;2023-03-23T15:43:07;0.80;;;0.73;;
28009;SDS011;15334;49.494;8.410;2023-03-23T15:45:54;1.77;;;0.82;;
28009;SDS011;15334;49.494;8.410;2023-03-23T15:48:30;1.48;;;0.98;;
28009;SDS011;15334;49.494;8.410;2023-03-23T15:50:58;1.75;;;1.13;;
28009;SDS011;15334;49.494;8.410;2023-03-23T15:53:34;3.03;;;1.00;;
28009;SDS011;15334;49.494;8.410;2023-03-23T15:56:33;1.95;;;1.08;;
28009;SDS011;15334;49.494;8.410;2023-03-23T15:59:04;2.58;;;1.20;;
28009;SDS011;15334;49.494;8.410;2023-03-23T16:01:43;2.38;;;1.02;;
28009;SDS011;15334;49.494;8.410;2023-03-23T16:04:17;2.47;;;1.15;;
28009;SDS011;15334;49.494;8.410;2023-03-23T16:07:00;1.60;;;0.93;;
28009;SDS011;15334;49.494;8.410;2023-03-23T16:13:25;2.75;;;1.10;;
28009;SDS011;15334;49.494;8.410;2023-03-23T16:16:22;2.75;;;1.50;;
28009;SDS011;15334;49.494;8.410;2023-03-23T16:18:58;2.80;;;1.42;;
28009;SDS011;15334;49.494;8.410;2023-03-23T16:21:52;3.30;;;1.20;;
28009;SDS011;15334;49.494;8.410;2023-03-23T16:24:24;2.30;;;1.17;;
28009;SDS011;15334;49.494;8.410;2023-03-23T16:26:58;4.65;;;1.90;;
28009;SDS011;15334;49.494;8.410;2023-03-23T16:29:27;4.18;;;1.63;;
28009;SDS011;15334;49.494;8.410;2023-03-23T16:32:10;2.75;;;1.48;;
28009;SDS011;15334;49.494;8.410;2023-03-23T16:34:51;2.42;;;1.30;;
28009;SDS011;15334;49.494;8.410;2023-03-23T16:37:21;3.58;;;1.60;;
28009;SDS011;15334;49.494;8.410;2023-03-23T16:39:49;2.90;;;1.30;;
28009;SDS011;15334;49.494;8.410;2023-03-23T16:42:20;4.57;;;1.40;;
28009;SDS011;15334;49.494;8.410;2023-03-23T16:44:50;3.28;;;1.67;;
28009;SDS011;15334;49.494;8.410;2023-03-23T16:47:23;3.47;;;1.30;;
28009;SDS011;15334;49.494;8.410;2023-03-23T16:49:54;3.80;;;1.75;;
28009;SDS011;15334;49.494;8.410;2023-03-23T16:52:32;4.05;;;1.38;;
28009;SDS011;15334;49.494;8.410;2023-03-23T16:55:15;1.95;;;1.17;;
28009;SDS011;15334;49.494;8.410;2023-03-23T16:57:51;3.95;;;1.50;;
28009;SDS011;15334;49.494;8.410;2023-03-23T17:00:34;3.17;;;1.55;;
28009;SDS011;15334;49.494;8.410;2023-03-23T17:03:04;4.97;;;1.38;;
28009;SDS011;15334;49.494;8.410;2023-03-23T17:05:34;2.53;;;1.15;;
28009;SDS011;15334;49.494;8.410;2023-03-23T17:08:12;2.85;;;1.50;;
28009;SDS011;15334;49.494;8.410;2023-03-23T17:10:46;4.00;;;1.73;;
28009;SDS011;15334;49.494;8.410;2023-03-23T17:13:39;2.88;;;1.50;;
28009;SDS011;15334;49.494;8.410;2023-03-23T17:16:37;2.47;;;1.48;;
28009;SDS011;15334;49.494;8.410;2023-03-23T17:19:17;3.25;;;1.70;;
28009;SDS011;15334;49.494;8.410;2023-03-23T17:22:12;4.90;;;1.65;;
28009;SDS011;15334;49.494;8.410;2023-03-23T17:24:52;3.30;;;1.67;;
28009;SDS011;15334;49.494;8.410;2023-03-23T17:27:22;2.78;;;1.58;;